Time;durP1;ratioP1;P1;durP2;ratioP2;P2;SDS_P1;SDS_P2;PMS_P1;PMS_P2;Temp;Humidity;BMP_temperature;BMP_pressure;BME280_temperature;BME280_humidity;BME280_pressure;Samples;Min_cycle;Max_cycle;Signal;HPM_P1;HPM_P2
2022/01/15 00:02:14;;;;;;;;;;;19.70;56.20;;;;;;5052680;28;1917;-69
2022/01/15 00:04:39;;;;;;;;;;;19.70;56.20;;;;;;5042136;28;1700;-69
2022/01/15 00:07:05;;;;;;;;;;;19.70;56.20;;;;;;5032962;28;1362;-69
2022/01/15 00:09:30;;;;;;;;;;;19.70;56.20;;;;;;5037873;28;1122;-69
2022/01/15 00:11:56;;;;;;;;;;;19.70;56.20;;;;;;5043103;28;1036;-68
2022/01/15 00:14:36;;;;;;;;;;;19.70;56.20;;;;;;5053038;28;1328;-69
2022/01/15 00:17:14;;;;;;;;;;;19.70;56.20;;;;;;5053287;28;1307;-69
2022/01/15 00:19:43;;;;;;;;;;;19.70;56.20;;;;;;5053196;28;1019;-69
2022/01/15 00:22:12;;;;;;;;;;;19.70;56.20;;;;;;5052286;28;1905;-70
2022/01/15 00:24:38;;;;;;;;;;;19.70;56.20;;;;;;5051882;28;1043;-69
2022/01/15 00:27:03;;;;;;;;;;;19.60;56.20;;;;;;5038103;28;1229;-70
2022/01/15 00:29:31;;;;;;;;;;;19.70;56.20;;;;;;5031588;28;1296;-69
2022/01/15 00:31:57;;;;;;;;;;;19.60;56.20;;;;;;5031928;28;956;-68
2022/01/15 00:34:22;;;;;;;;;;;19.60;56.20;;;;;;5032774;28;1071;-69
2022/01/15 00:36:48;;;;;;;;;;;19.60;56.20;;;;;;5031590;28;1524;-69
2022/01/15 00:39:13;;;;;;;;;;;19.60;56.30;;;;;;5032840;28;1098;-70
2022/01/15 00:41:39;;;;;;;;;;;19.60;56.30;;;;;;5031657;28;1918;-69
2022/01/15 00:44:04;;;;;;;;;;;19.60;56.30;;;;;;5032734;28;1038;-69
2022/01/15 00:46:29;;;;;;;;;;;19.60;56.40;;;;;;5033021;28;1271;-70
2022/01/15 00:48:55;;;;;;;;;;;19.60;56.40;;;;;;5032309;28;1126;-69
2022/01/15 00:51:20;;;;;;;;;;;19.60;56.40;;;;;;5031424;28;1290;-69
2022/01/15 00:53:46;;;;;;;;;;;19.60;56.40;;;;;;5032720;28;1371;-70
2022/01/15 00:56:11;;;;;;;;;;;19.50;56.40;;;;;;5031099;28;1386;-69
2022/01/15 00:58:36;;;;;;;;;;;19.50;56.40;;;;;;5032543;28;1510;-69
2022/01/15 01:01:02;;;;;;;;;;;19.50;56.40;;;;;;5031957;28;1950;-70
2022/01/15 01:03:27;;;;;;;;;;;19.50;56.50;;;;;;5038545;28;1302;-69
2022/01/15 01:05:53;;;;;;;;;;;19.50;56.50;;;;;;5032053;28;1816;-69
2022/01/15 01:08:18;;;;;;;;;;;19.50;56.50;;;;;;5032457;28;1070;-69
2022/01/15 01:10:54;;;;;;;;;;;19.50;56.50;;;;;;5037544;28;1174;-69
2022/01/15 01:24:00;;;;;;;;;;;19.50;56.70;;;;;;5034437;28;1640;-69
2022/01/15 01:26:31;;;;;;;;;;;19.50;56.70;;;;;;5036088;28;1365;-70
2022/01/15 01:29:14;;;;;;;;;;;19.50;56.70;;;;;;5035431;28;1052;-68
2022/01/15 01:31:54;;;;;;;;;;;19.40;56.70;;;;;;5035452;28;1067;-69
2022/01/15 01:34:20;;;;;;;;;;;19.50;56.80;;;;;;5049671;28;970;-69
2022/01/15 01:36:57;;;;;;;;;;;19.40;57.00;;;;;;5049261;28;1331;-70
2022/01/15 01:39:25;;;;;;;;;;;19.40;56.80;;;;;;5056355;28;1373;-69
2022/01/15 01:42:39;;;;;;;;;;;19.40;56.80;;;;;;5055628;28;1902;-70
2022/01/15 01:44:41;;;;;;;;;;;19.40;56.80;;;;;;5046882;28;1409;-69
2022/01/15 01:47:19;;;;;;;;;;;19.40;56.80;;;;;;5054674;28;1279;-68
2022/01/15 01:49:45;;;;;;;;;;;19.40;56.90;;;;;;5055595;28;1114;-68
2022/01/15 01:52:10;;;;;;;;;;;19.40;56.90;;;;;;5034929;28;1358;-68
2022/01/15 01:54:36;;;;;;;;;;;19.40;56.90;;;;;;5034742;28;1390;-69
2022/01/15 01:57:01;;;;;;;;;;;19.40;56.90;;;;;;5036040;28;1465;-69
2022/01/15 01:59:27;;;;;;;;;;;19.40;56.90;;;;;;5035780;28;1052;-69
2022/01/15 02:01:53;;;;;;;;;;;19.40;57.00;;;;;;5034990;28;1969;-69
2022/01/15 02:04:18;;;;;;;;;;;19.30;56.90;;;;;;5041864;28;1149;-70
2022/01/15 02:06:43;;;;;;;;;;;19.40;57.00;;;;;;5035802;28;1252;-69
2022/01/15 02:09:09;;;;;;;;;;;19.30;57.00;;;;;;5040641;28;1079;-69
2022/01/15 02:11:34;;;;;;;;;;;19.40;57.00;;;;;;5042730;28;1099;-70
2022/01/15 02:14:00;;;;;;;;;;;19.40;57.00;;;;;;5053628;28;1021;-69
2022/01/15 02:16:25;;;;;;;;;;;19.40;57.00;;;;;;5055444;28;1321;-69
2022/01/15 02:18:52;;;;;;;;;;;19.30;57.00;;;;;;5055331;28;1066;-70
2022/01/15 02:23:50;;;;;;;;;;;19.30;57.00;;;;;;5055083;28;1122;-69
2022/01/15 02:26:16;;;;;;;;;;;19.30;57.00;;;;;;5055587;28;1241;-70
2022/01/15 02:28:43;;;;;;;;;;;19.30;57.00;;;;;;5054986;28;1193;-70
2022/01/15 02:31:17;;;;;;;;;;;19.30;57.00;;;;;;5054701;28;1039;-70
2022/01/15 02:33:43;;;;;;;;;;;19.40;57.00;;;;;;5055111;28;1364;-70
2022/01/15 02:36:10;;;;;;;;;;;19.30;57.00;;;;;;5055092;28;1390;-70
2022/01/15 02:38:36;;;;;;;;;;;19.30;57.00;;;;;;5053873;28;1119;-70
2022/01/15 02:41:01;;;;;;;;;;;19.30;57.00;;;;;;5053996;28;1910;-70
2022/01/15 02:43:32;;;;;;;;;;;19.30;57.00;;;;;;5054903;28;1339;-70
2022/01/15 02:46:07;;;;;;;;;;;19.30;57.00;;;;;;5054812;28;1287;-69
2022/01/15 02:48:33;;;;;;;;;;;19.40;57.00;;;;;;5055059;28;1613;-70
2022/01/15 02:50:58;;;;;;;;;;;19.30;57.00;;;;;;5054174;28;1274;-69
2022/01/15 02:53:24;;;;;;;;;;;19.30;56.90;;;;;;5053466;28;1298;-70
2022/01/15 02:55:50;;;;;;;;;;;19.40;57.00;;;;;;5054870;28;1272;-70
2022/01/15 02:58:15;;;;;;;;;;;19.40;57.00;;;;;;5054546;28;1071;-70
2022/01/15 03:00:41;;;;;;;;;;;19.40;57.00;;;;;;5053969;28;1066;-70
2022/01/15 03:03:06;;;;;;;;;;;19.40;57.00;;;;;;5049552;28;1895;-70
2022/01/15 03:05:32;;;;;;;;;;;19.40;57.00;;;;;;5040820;28;1294;-70
2022/01/15 03:07:57;;;;;;;;;;;19.40;57.00;;;;;;5053012;28;1375;-69
2022/01/15 03:10:23;;;;;;;;;;;19.30;57.00;;;;;;5037477;28;1126;-70
2022/01/15 03:12:48;;;;;;;;;;;19.30;57.00;;;;;;5032599;28;1283;-70
2022/01/15 03:15:19;;;;;;;;;;;19.40;57.00;;;;;;5034222;28;1284;-69
2022/01/15 03:17:45;;;;;;;;;;;19.30;57.00;;;;;;5034470;28;1177;-70
2022/01/15 03:20:11;;;;;;;;;;;19.30;57.00;;;;;;5034175;28;1111;-70
2022/01/15 03:22:36;;;;;;;;;;;19.30;57.00;;;;;;5032903;28;1922;-69
2022/01/15 03:25:02;;;;;;;;;;;19.30;57.00;;;;;;5033791;28;1353;-69
2022/01/15 03:27:27;;;;;;;;;;;19.30;57.00;;;;;;5033792;28;1106;-70
2022/01/15 03:29:53;;;;;;;;;;;19.30;57.00;;;;;;5034234;28;1333;-67
2022/01/15 03:32:18;;;;;;;;;;;19.30;57.00;;;;;;5033587;28;1067;-69
2022/01/15 03:34:44;;;;;;;;;;;19.30;57.10;;;;;;5032809;28;1115;-70
2022/01/15 03:37:09;;;;;;;;;;;19.30;57.10;;;;;;5033836;28;1409;-69
2022/01/15 03:39:35;;;;;;;;;;;19.30;57.10;;;;;;5033624;28;1088;-69
2022/01/15 03:42:01;;;;;;;;;;;19.30;57.10;;;;;;5033018;28;1967;-69
2022/01/15 03:44:27;;;;;;;;;;;19.30;57.10;;;;;;5033950;28;1091;-69
2022/01/15 03:46:52;;;;;;;;;;;19.30;57.10;;;;;;5031755;28;1374;-69
2022/01/15 03:49:17;;;;;;;;;;;19.30;57.10;;;;;;5033925;28;1059;-70
2022/01/15 03:51:43;;;;;;;;;;;19.30;57.10;;;;;;5033199;28;1350;-69
2022/01/15 03:54:08;;;;;;;;;;;19.30;57.10;;;;;;5033190;28;1118;-70
2022/01/15 03:56:34;;;;;;;;;;;19.30;57.10;;;;;;5033103;28;1356;-69
2022/01/15 03:58:59;;;;;;;;;;;19.30;57.10;;;;;;5033668;28;1075;-68
2022/01/15 04:01:24;;;;;;;;;;;19.30;57.10;;;;;;5033031;28;1910;-70
2022/01/15 04:03:50;;;;;;;;;;;19.30;57.00;;;;;;5039664;28;1397;-69
2022/01/15 04:06:15;;;;;;;;;;;19.30;57.00;;;;;;5033056;28;1394;-69
2022/01/15 04:08:41;;;;;;;;;;;19.30;57.00;;;;;;5035519;28;1543;-70
2022/01/15 04:11:06;;;;;;;;;;;19.30;57.00;;;;;;5039076;28;1312;-69
2022/01/15 04:13:32;;;;;;;;;;;19.30;57.00;;;;;;5053505;28;1296;-69
2022/01/15 04:15:57;;;;;;;;;;;19.30;57.00;;;;;;5053011;28;1370;-70
2022/01/15 04:18:23;;;;;;;;;;;19.30;57.00;;;;;;5053046;28;1307;-69
2022/01/15 04:20:49;;;;;;;;;;;19.30;57.00;;;;;;5052673;28;1099;-69
2022/01/15 04:23:14;;;;;;;;;;;19.30;57.00;;;;;;5053330;28;1891;-69
2022/01/15 04:25:40;;;;;;;;;;;19.30;57.00;;;;;;5052434;28;1396;-69
2022/01/15 04:28:09;;;;;;;;;;;19.30;57.00;;;;;;5053182;28;1134;-70
2022/01/15 04:30:35;;;;;;;;;;;19.30;57.10;;;;;;5052427;28;1133;-69
2022/01/15 04:33:00;;;;;;;;;;;19.30;57.10;;;;;;5052670;28;1176;-68
2022/01/15 04:35:26;;;;;;;;;;;19.30;57.10;;;;;;5050967;28;1406;-69
2022/01/15 04:37:56;;;;;;;;;;;19.30;57.10;;;;;;5052886;28;1098;-69
2022/01/15 04:40:22;;;;;;;;;;;19.30;57.10;;;;;;5051964;28;1103;-69
2022/01/15 04:42:47;;;;;;;;;;;19.30;57.10;;;;;;5052229;28;1906;-69
2022/01/15 04:45:13;;;;;;;;;;;19.30;57.10;;;;;;5052475;28;1290;-69
2022/01/15 04:47:38;;;;;;;;;;;19.30;57.10;;;;;;5052757;28;1093;-70
2022/01/15 04:50:04;;;;;;;;;;;19.20;57.10;;;;;;5050553;28;1182;-69
2022/01/15 04:52:30;;;;;;;;;;;19.20;57.20;;;;;;5034384;28;1365;-70
2022/01/15 04:54:56;;;;;;;;;;;19.20;57.10;;;;;;5052313;28;1084;-69
2022/01/15 04:57:21;;;;;;;;;;;19.30;57.20;;;;;;5051324;28;1231;-68
2022/01/15 04:59:47;;;;;;;;;;;19.20;57.20;;;;;;5052356;28;1325;-69
2022/01/15 05:02:12;;;;;;;;;;;19.20;57.20;;;;;;5052199;28;1910;-69
2022/01/15 05:04:38;;;;;;;;;;;19.20;57.20;;;;;;5041735;28;1287;-69
2022/01/15 05:07:03;;;;;;;;;;;19.20;57.20;;;;;;5042822;28;1259;-70
2022/01/15 05:09:28;;;;;;;;;;;19.30;57.30;;;;;;5043067;28;1075;-69
2022/01/15 05:12:11;;;;;;;;;;;19.30;57.20;;;;;;5032268;28;1099;-69
2022/01/15 05:14:36;;;;;;;;;;;19.20;57.20;;;;;;5031028;28;1095;-70
2022/01/15 05:17:02;;;;;;;;;;;19.30;57.20;;;;;;5031160;28;1441;-70
2022/01/15 05:19:28;;;;;;;;;;;19.30;57.10;;;;;;5032296;28;1494;-70
2022/01/15 05:21:55;;;;;;;;;;;19.40;57.10;;;;;;5032192;28;1956;-70
2022/01/15 05:24:21;;;;;;;;;;;19.40;56.90;;;;;;5031855;28;1212;-70
2022/01/15 05:26:46;;;;;;;;;;;19.50;56.80;;;;;;5024088;28;1303;-70
2022/01/15 05:29:12;;;;;;;;;;;19.50;56.70;;;;;;5032554;28;1198;-70
2022/01/15 05:31:37;;;;;;;;;;;19.60;56.60;;;;;;5032012;28;1261;-70
2022/01/15 05:34:02;;;;;;;;;;;19.60;56.40;;;;;;5031855;28;1237;-70
2022/01/15 05:36:28;;;;;;;;;;;19.70;56.30;;;;;;5032452;28;1531;-70
2022/01/15 05:38:53;;;;;;;;;;;19.70;56.20;;;;;;5032164;28;1122;-71
2022/01/15 05:41:19;;;;;;;;;;;19.80;56.10;;;;;;5031453;28;1902;-70
2022/01/15 05:43:44;;;;;;;;;;;19.80;56.00;;;;;;5032238;28;1364;-70
2022/01/15 05:46:10;;;;;;;;;;;19.80;55.90;;;;;;5031732;28;1349;-70
2022/01/15 05:48:35;;;;;;;;;;;19.80;55.80;;;;;;5032156;28;1087;-71
2022/01/15 05:51:00;;;;;;;;;;;19.90;55.80;;;;;;5038454;28;1901;-71
2022/01/15 05:53:26;;;;;;;;;;;19.90;55.70;;;;;;5050118;28;1910;-71
2022/01/15 05:55:51;;;;;;;;;;;19.90;55.60;;;;;;5061545;28;1271;-71
2022/01/15 05:58:17;;;;;;;;;;;19.90;55.60;;;;;;5033281;28;1289;-69
2022/01/15 06:00:42;;;;;;;;;;;19.90;55.50;;;;;;5030949;28;1331;-70
2022/01/15 06:03:08;;;;;;;;;;;20.00;55.50;;;;;;5037014;28;1942;-69
2022/01/15 06:05:33;;;;;;;;;;;20.00;55.50;;;;;;5033071;28;1288;-69
2022/01/15 06:07:58;;;;;;;;;;;19.90;55.40;;;;;;5031470;28;1483;-69
2022/01/15 06:10:24;;;;;;;;;;;20.00;55.50;;;;;;5038454;28;1104;-69
2022/01/15 06:12:49;;;;;;;;;;;20.00;55.50;;;;;;5054091;28;1382;-70
2022/01/15 06:15:15;;;;;;;;;;;20.00;55.50;;;;;;5055517;28;1268;-69
2022/01/15 06:17:41;;;;;;;;;;;20.00;55.40;;;;;;5054308;28;1294;-68
2022/01/15 06:20:06;;;;;;;;;;;20.00;55.40;;;;;;5055011;28;1073;-68
2022/01/15 06:22:32;;;;;;;;;;;20.00;55.40;;;;;;5055150;28;1910;-69
2022/01/15 06:24:57;;;;;;;;;;;20.00;55.40;;;;;;5055491;28;1262;-69
2022/01/15 06:27:23;;;;;;;;;;;20.00;55.40;;;;;;5055126;28;1217;-69
2022/01/15 06:29:48;;;;;;;;;;;20.00;55.40;;;;;;5055338;28;1274;-70
2022/01/15 06:32:13;;;;;;;;;;;20.00;55.40;;;;;;5053806;28;1264;-69
2022/01/15 06:34:39;;;;;;;;;;;20.00;55.40;;;;;;5055030;28;1281;-69
2022/01/15 06:37:05;;;;;;;;;;;20.00;55.40;;;;;;5053796;28;1323;-70
2022/01/15 06:39:31;;;;;;;;;;;20.00;55.40;;;;;;5055177;28;1048;-68
2022/01/15 06:41:56;;;;;;;;;;;20.00;55.40;;;;;;5054072;28;1906;-69
2022/01/15 06:44:22;;;;;;;;;;;20.00;55.40;;;;;;5054602;28;1267;-69
2022/01/15 06:46:47;;;;;;;;;;;20.00;55.40;;;;;;5054693;28;1401;-69
2022/01/15 06:49:13;;;;;;;;;;;20.00;55.40;;;;;;5054848;28;1354;-69
2022/01/15 06:51:38;;;;;;;;;;;20.00;55.50;;;;;;5053937;28;1280;-69
2022/01/15 06:54:03;;;;;;;;;;;20.00;55.40;;;;;;5054616;28;1418;-71
2022/01/15 06:56:29;;;;;;;;;;;20.00;55.40;;;;;;5054750;28;1385;-68
2022/01/15 06:58:54;;;;;;;;;;;20.00;55.50;;;;;;5053203;28;1052;-70
2022/01/15 07:01:20;;;;;;;;;;;20.00;55.40;;;;;;5054067;28;1949;-71
2022/01/15 07:03:45;;;;;;;;;;;19.90;54.50;;;;;;5048223;28;1392;-71
2022/01/15 07:06:11;;;;;;;;;;;19.90;53.70;;;;;;5040902;28;1333;-70
2022/01/15 07:08:36;;;;;;;;;;;20.00;52.20;;;;;;5052764;28;1065;-69
2022/01/15 07:11:01;;;;;;;;;;;19.90;51.80;;;;;;5033879;28;1369;-70
2022/01/15 07:13:29;;;;;;;;;;;19.90;51.80;;;;;;5034704;28;1287;-70
2022/01/15 07:15:55;;;;;;;;;;;19.90;52.10;;;;;;5030473;28;1457;-69
2022/01/15 07:18:20;;;;;;;;;;;19.90;52.20;;;;;;5043479;28;1334;-70
2022/01/15 07:20:46;;;;;;;;;;;19.90;52.30;;;;;;5051012;28;1497;-69
2022/01/15 07:23:11;;;;;;;;;;;19.90;52.50;;;;;;5054073;28;1956;-70
2022/01/15 07:25:37;;;;;;;;;;;19.90;52.60;;;;;;5053921;28;1410;-69
2022/01/15 07:28:02;;;;;;;;;;;19.90;52.80;;;;;;5054262;28;1275;-69
2022/01/15 07:30:28;;;;;;;;;;;19.90;52.90;;;;;;5053491;28;1075;-69
2022/01/15 07:32:53;;;;;;;;;;;19.90;53.10;;;;;;5052682;28;1382;-69
2022/01/15 07:35:19;;;;;;;;;;;19.90;53.20;;;;;;5053717;28;1370;-70
2022/01/15 07:37:44;;;;;;;;;;;19.90;53.30;;;;;;5039088;28;2179;-70
2022/01/15 07:40:10;;;;;;;;;;;19.90;53.70;;;;;;5033230;28;1139;-71
2022/01/15 07:42:37;;;;;;;;;;;20.00;53.70;;;;;;5033529;28;1910;-71
2022/01/15 07:45:03;;;;;;;;;;;20.10;53.70;;;;;;5033823;28;1275;-69
2022/01/15 07:47:28;;;;;;;;;;;20.20;53.60;;;;;;5032630;28;1407;-70
2022/01/15 07:49:54;;;;;;;;;;;20.30;53.50;;;;;;5033360;28;1185;-70
2022/01/15 07:52:19;;;;;;;;;;;20.40;54.00;;;;;;5033371;28;1040;-69
2022/01/15 07:54:45;;;;;;;;;;;20.60;53.20;;;;;;5033286;28;1258;-70
2022/01/15 07:57:10;;;;;;;;;;;20.70;53.00;;;;;;5034154;28;1377;-72
2022/01/15 07:59:36;;;;;;;;;;;20.80;52.80;;;;;;5033418;28;1255;-70
2022/01/15 08:02:02;;;;;;;;;;;21.00;52.60;;;;;;5032637;28;1957;-70
2022/01/15 08:04:27;;;;;;;;;;;21.10;52.40;;;;;;5040186;28;1349;-70
2022/01/15 08:06:52;;;;;;;;;;;21.20;52.20;;;;;;5033735;28;1407;-70
2022/01/15 08:09:18;;;;;;;;;;;21.30;52.00;;;;;;5038150;28;1316;-71
2022/01/15 08:11:43;;;;;;;;;;;21.40;51.80;;;;;;5036216;28;1349;-70
2022/01/15 08:14:09;;;;;;;;;;;21.40;51.60;;;;;;5043388;28;1401;-71
2022/01/15 08:16:34;;;;;;;;;;;21.50;51.40;;;;;;5042090;28;1326;-71
2022/01/15 08:19:00;;;;;;;;;;;21.60;51.40;;;;;;5044219;28;1714;-71
2022/01/15 08:21:25;;;;;;;;;;;21.60;51.20;;;;;;5042437;28;2028;-71
2022/01/15 08:23:50;;;;;;;;;;;21.70;51.30;;;;;;5042922;28;1199;-71
2022/01/15 08:26:16;;;;;;;;;;;21.70;51.40;;;;;;5069378;22;2726;-71
2022/01/15 08:28:41;;;;;;;;;;;21.70;51.50;;;;;;5062954;28;1628;-72
2022/01/15 08:31:07;;;;;;;;;;;21.70;51.90;;;;;;5064728;28;1136;-72
2022/01/15 08:33:32;;;;;;;;;;;21.70;52.20;;;;;;5067750;28;1179;-72
2022/01/15 08:35:58;;;;;;;;;;;21.80;52.30;;;;;;5063949;28;1288;-71
2022/01/15 08:38:23;;;;;;;;;;;21.80;52.20;;;;;;5065635;28;1202;-72
2022/01/15 08:40:49;;;;;;;;;;;21.80;52.50;;;;;;5065645;28;1163;-71
2022/01/15 08:43:14;;;;;;;;;;;21.80;52.70;;;;;;5064950;28;1977;-70
2022/01/15 08:45:40;;;;;;;;;;;21.80;52.70;;;;;;5062933;28;1334;-71
2022/01/15 08:48:05;;;;;;;;;;;21.80;52.70;;;;;;5062345;28;1206;-72
2022/01/15 08:50:31;;;;;;;;;;;21.80;52.70;;;;;;5072364;28;1689;-71
2022/01/15 08:52:57;;;;;;;;;;;21.80;52.70;;;;;;5071582;28;1250;-71
2022/01/15 08:55:26;;;;;;;;;;;21.80;52.70;;;;;;5072815;28;1692;-71
2022/01/15 08:57:51;;;;;;;;;;;21.80;52.80;;;;;;5071693;28;1436;-70
2022/01/15 09:00:17;;;;;;;;;;;21.80;52.90;;;;;;5072478;28;1225;-71
2022/01/15 09:02:42;;;;;;;;;;;21.80;52.90;;;;;;5057524;28;1939;-71
2022/01/15 09:05:08;;;;;;;;;;;21.70;53.00;;;;;;5071237;28;1122;-71
2022/01/15 09:07:33;;;;;;;;;;;21.70;53.10;;;;;;5072454;28;1370;-71
2022/01/15 09:09:59;;;;;;;;;;;21.70;53.30;;;;;;5072730;28;1377;-72
2022/01/15 09:12:24;;;;;;;;;;;21.70;53.40;;;;;;5072446;28;1628;-71
2022/01/15 09:14:52;;;;;;;;;;;21.70;53.50;;;;;;5064647;28;1698;-72
2022/01/15 09:17:18;;;;;;;;;;;21.60;53.50;;;;;;5063063;28;1373;-72
2022/01/15 09:19:44;;;;;;;;;;;21.60;53.70;;;;;;5070232;28;1599;-72
2022/01/15 09:22:11;;;;;;;;;;;21.60;54.00;;;;;;5069442;28;1902;-72
2022/01/15 09:24:37;;;;;;;;;;;21.60;54.10;;;;;;5071604;28;1375;-72
2022/01/15 09:30:12;;;;;;;;;;;21.60;54.10;;;;;;5071481;28;1333;-72
2022/01/15 09:32:32;;;;;;;;;;;21.60;54.40;;;;;;5070447;28;1337;-72
2022/01/15 09:34:57;;;;;;;;;;;21.50;54.50;;;;;;5071908;28;1674;-72
2022/01/15 09:37:22;;;;;;;;;;;21.50;54.70;;;;;;5072038;28;1398;-71
2022/01/15 09:39:50;;;;;;;;;;;21.50;54.80;;;;;;5071350;28;1644;-72
2022/01/15 09:42:16;;;;;;;;;;;21.50;54.80;;;;;;5069198;28;1910;-72
2022/01/15 09:44:41;;;;;;;;;;;21.50;54.90;;;;;;5071975;28;1654;-72
2022/01/15 09:47:09;;;;;;;;;;;21.50;55.00;;;;;;5073927;28;1389;-72
2022/01/15 09:49:35;;;;;;;;;;;21.40;55.20;;;;;;5074319;28;1366;-72
2022/01/15 09:52:01;;;;;;;;;;;21.40;55.20;;;;;;5073155;28;2108;-72
2022/01/15 09:54:27;;;;;;;;;;;21.40;55.30;;;;;;5074849;28;1371;-72
2022/01/15 09:56:52;;;;;;;;;;;21.40;55.40;;;;;;5074837;28;1370;-72
2022/01/15 09:59:18;;;;;;;;;;;21.40;55.70;;;;;;5075233;28;1339;-72
2022/01/15 10:01:43;;;;;;;;;;;21.30;56.10;;;;;;5075061;28;1901;-72
2022/01/15 10:04:09;;;;;;;;;;;21.30;55.50;;;;;;5075043;28;1720;-72
2022/01/15 10:06:34;;;;;;;;;;;21.30;55.60;;;;;;5074440;28;1344;-72
2022/01/15 10:09:00;;;;;;;;;;;21.30;55.70;;;;;;5074043;28;1417;-72
2022/01/15 10:11:39;;;;;;;;;;;21.30;55.70;;;;;;5068522;28;2819;-72
2022/01/15 10:14:05;;;;;;;;;;;21.30;55.70;;;;;;5074190;28;1638;-72
2022/01/15 10:16:30;;;;;;;;;;;21.30;55.80;;;;;;5073941;28;1375;-72
2022/01/15 10:18:55;;;;;;;;;;;21.20;55.80;;;;;;5074331;28;1600;-72
2022/01/15 10:21:23;;;;;;;;;;;21.20;55.90;;;;;;5073905;28;1898;-71
2022/01/15 10:23:49;;;;;;;;;;;21.20;55.80;;;;;;5073861;28;1662;-71
2022/01/15 10:26:21;;;;;;;;;;;21.20;56.00;;;;;;5075266;28;1302;-71
2022/01/15 10:28:48;;;;;;;;;;;21.20;56.00;;;;;;5074425;28;1598;-71
2022/01/15 10:31:17;;;;;;;;;;;21.20;56.00;;;;;;5074306;28;1110;-71
2022/01/15 10:33:42;;;;;;;;;;;21.10;56.00;;;;;;5075228;28;1494;-71
2022/01/15 10:36:17;;;;;;;;;;;21.10;56.00;;;;;;5073858;28;1592;-71
2022/01/15 10:38:42;;;;;;;;;;;21.10;56.10;;;;;;5066148;28;1276;-71
2022/01/15 10:41:09;;;;;;;;;;;21.10;56.10;;;;;;5074376;28;1722;-71
2022/01/15 10:43:35;;;;;;;;;;;21.10;56.20;;;;;;5072452;28;2008;-71
2022/01/15 10:46:03;;;;;;;;;;;21.10;56.10;;;;;;5074940;28;1495;-71
2022/01/15 10:48:32;;;;;;;;;;;21.10;56.20;;;;;;5075017;28;1110;-73
2022/01/15 10:50:59;;;;;;;;;;;21.10;56.30;;;;;;5072598;28;1263;-72
2022/01/15 10:53:40;;;;;;;;;;;21.10;56.20;;;;;;5074296;28;1308;-72
2022/01/15 10:56:06;;;;;;;;;;;21.10;56.30;;;;;;5074639;28;1305;-72
2022/01/15 10:58:32;;;;;;;;;;;21.10;56.40;;;;;;5063872;28;1275;-72
2022/01/15 11:00:57;;;;;;;;;;;21.10;56.40;;;;;;5071944;28;1357;-73
2022/01/15 11:03:24;;;;;;;;;;;21.10;56.40;;;;;;5060050;28;1890;-72
2022/01/15 11:05:50;;;;;;;;;;;21.10;56.40;;;;;;5072165;28;1400;-72
2022/01/15 11:08:15;;;;;;;;;;;21.10;56.40;;;;;;5073311;28;1258;-72
2022/01/15 11:10:41;;;;;;;;;;;21.10;56.50;;;;;;5073460;28;1161;-72
2022/01/15 11:13:10;;;;;;;;;;;21.10;56.50;;;;;;5074742;28;1055;-72
2022/01/15 11:15:36;;;;;;;;;;;21.10;56.50;;;;;;5074656;28;1379;-73
2022/01/15 11:18:02;;;;;;;;;;;21.00;56.80;;;;;;5073891;28;1288;-72
2022/01/15 11:20:28;;;;;;;;;;;21.00;56.80;;;;;;5073309;28;1381;-72
2022/01/15 11:22:54;;;;;;;;;;;21.10;57.10;;;;;;5072846;28;1882;-73
2022/01/15 11:25:19;;;;;;;;;;;21.10;57.10;;;;;;5072792;28;1380;-73
2022/01/15 11:27:45;;;;;;;;;;;21.10;57.10;;;;;;5072962;28;1291;-73
2022/01/15 11:30:12;;;;;;;;;;;21.10;57.10;;;;;;5072294;28;1258;-72
2022/01/15 11:32:38;;;;;;;;;;;21.10;57.20;;;;;;5073058;28;1086;-72
2022/01/15 11:35:03;;;;;;;;;;;21.10;57.30;;;;;;5072094;28;1404;-72
2022/01/15 11:37:28;;;;;;;;;;;21.10;57.20;;;;;;5074034;28;1299;-73
2022/01/15 11:39:55;;;;;;;;;;;21.20;57.00;;;;;;5072269;28;1247;-72
2022/01/15 11:42:25;;;;;;;;;;;21.20;56.90;;;;;;5072040;28;1906;-73
2022/01/15 11:44:50;;;;;;;;;;;21.20;56.90;;;;;;5074008;28;1368;-72
2022/01/15 11:47:18;;;;;;;;;;;21.30;56.90;;;;;;5073313;28;1450;-73
2022/01/15 11:49:47;;;;;;;;;;;21.30;56.90;;;;;;5073367;28;971;-73
2022/01/15 11:52:14;;;;;;;;;;;21.30;56.80;;;;;;5072882;28;1404;-72
2022/01/15 11:54:48;;;;;;;;;;;21.30;56.90;;;;;;5072417;28;1633;-73
2022/01/15 11:57:24;;;;;;;;;;;21.30;57.00;;;;;;5073605;28;1224;-72
2022/01/15 11:59:52;;;;;;;;;;;21.30;56.90;;;;;;5061962;28;1221;-73
2022/01/15 12:02:30;;;;;;;;;;;21.30;57.00;;;;;;5060974;28;1902;-72
2022/01/15 12:05:14;;;;;;;;;;;21.30;57.00;;;;;;5072979;28;1451;-73
2022/01/15 12:07:39;;;;;;;;;;;21.30;57.00;;;;;;5072978;28;1404;-72
2022/01/15 12:10:05;;;;;;;;;;;21.30;57.00;;;;;;5072619;28;1157;-73
2022/01/15 12:12:41;;;;;;;;;;;21.30;56.90;;;;;;5072628;28;1380;-71
2022/01/15 12:15:09;;;;;;;;;;;21.30;57.00;;;;;;5073089;28;1396;-72
2022/01/15 12:17:36;;;;;;;;;;;21.30;57.00;;;;;;5052069;28;1556;-71
2022/01/15 12:20:05;;;;;;;;;;;21.30;57.00;;;;;;5063682;28;1355;-72
2022/01/15 12:22:42;;;;;;;;;;;21.30;57.00;;;;;;5071278;28;1964;-72
2022/01/15 12:25:07;;;;;;;;;;;21.30;57.00;;;;;;5073092;28;1391;-71
2022/01/15 12:27:33;;;;;;;;;;;21.30;57.60;;;;;;5072988;28;1659;-72
2022/01/15 12:30:00;;;;;;;;;;;21.20;57.00;;;;;;5071788;28;1028;-72
2022/01/15 12:32:29;;;;;;;;;;;21.20;57.10;;;;;;5071854;28;1190;-71
2022/01/15 12:34:55;;;;;;;;;;;21.20;57.10;;;;;;5072146;28;1322;-72
2022/01/15 12:37:20;;;;;;;;;;;21.20;57.10;;;;;;5072739;28;1214;-75
2022/01/15 12:39:47;;;;;;;;;;;21.20;57.20;;;;;;5072935;28;1056;-72
2022/01/15 12:42:13;;;;;;;;;;;21.20;57.30;;;;;;5070336;28;1909;-73
2022/01/15 12:44:39;;;;;;;;;;;21.20;57.30;;;;;;5073533;28;1320;-72
2022/01/15 12:47:05;;;;;;;;;;;21.20;57.40;;;;;;5072609;28;1325;-72
2022/01/15 12:49:40;;;;;;;;;;;21.20;57.30;;;;;;5071060;28;1131;-72
2022/01/15 12:52:09;;;;;;;;;;;21.20;57.20;;;;;;5058782;28;1289;-72
2022/01/15 12:54:35;;;;;;;;;;;21.20;57.20;;;;;;5071670;28;1283;-72
2022/01/15 12:57:00;;;;;;;;;;;21.20;57.20;;;;;;5072150;28;1286;-72
2022/01/15 12:59:26;;;;;;;;;;;21.20;57.30;;;;;;5072589;28;1367;-73
2022/01/15 13:01:52;;;;;;;;;;;21.20;57.30;;;;;;5065332;28;1959;-74
2022/01/15 13:04:17;;;;;;;;;;;21.20;57.50;;;;;;5066439;28;2058;-74
2022/01/15 13:06:47;;;;;;;;;;;21.20;54.50;;;;;;5070051;28;1618;-71
2022/01/15 13:09:13;;;;;;;;;;;21.10;52.50;;;;;;5061121;28;2029;-72
2022/01/15 13:11:44;;;;;;;;;;;21.10;51.00;;;;;;5070754;28;1425;-73
2022/01/15 13:14:10;;;;;;;;;;;21.00;49.70;;;;;;5062894;28;1644;-71
2022/01/15 13:16:35;;;;;;;;;;;20.90;49.00;;;;;;5072852;28;1439;-71
2022/01/15 13:19:05;;;;;;;;;;;20.90;48.60;;;;;;5062834;28;1029;-71
2022/01/15 13:21:32;;;;;;;;;;;20.80;48.40;;;;;;5060845;28;1914;-71
2022/01/15 13:23:58;;;;;;;;;;;20.80;47.80;;;;;;5065435;28;1301;-71
2022/01/15 13:26:26;;;;;;;;;;;20.80;47.30;;;;;;5071138;28;1294;-72
2022/01/15 13:28:53;;;;;;;;;;;20.70;47.10;;;;;;5071842;28;1307;-72
2022/01/15 13:31:19;;;;;;;;;;;20.60;46.70;;;;;;5072275;28;1055;-71
2022/01/15 13:33:44;;;;;;;;;;;20.60;46.40;;;;;;5072381;28;1102;-71
2022/01/15 13:36:11;;;;;;;;;;;20.60;46.20;;;;;;5070406;28;1416;-74
2022/01/15 13:38:36;;;;;;;;;;;20.60;46.20;;;;;;5058554;28;1122;-72
2022/01/15 13:41:09;;;;;;;;;;;20.50;45.90;;;;;;5071347;28;935;-71
2022/01/15 13:43:34;;;;;;;;;;;20.50;46.00;;;;;;5070591;28;1983;-72
2022/01/15 13:46:07;;;;;;;;;;;20.50;45.80;;;;;;5055250;28;1691;-72
2022/01/15 13:48:32;;;;;;;;;;;20.50;45.70;;;;;;5045216;28;1418;-73
2022/01/15 13:53:47;;;;;;;;;;;20.40;45.40;;;;;;5068721;28;972;-70
2022/01/15 13:56:22;;;;;;;;;;;20.40;45.20;;;;;;5064097;28;1400;-72
2022/01/15 13:58:48;;;;;;;;;;;20.30;44.90;;;;;;5069761;28;1364;-73
2022/01/15 14:01:27;;;;;;;;;;;20.30;45.10;;;;;;5068682;28;1011;-71
2022/01/15 14:03:53;;;;;;;;;;;20.30;44.90;;;;;;5070788;28;1383;-71
2022/01/15 14:06:18;;;;;;;;;;;20.30;44.80;;;;;;5068901;28;1361;-71
2022/01/15 14:08:44;;;;;;;;;;;20.30;44.60;;;;;;5068901;28;1192;-71
2022/01/15 14:11:13;;;;;;;;;;;20.30;44.50;;;;;;5068188;28;1310;-72
2022/01/15 14:13:39;;;;;;;;;;;20.20;44.60;;;;;;5069242;28;1079;-70
2022/01/15 14:16:29;;;;;;;;;;;20.20;44.40;;;;;;5068980;28;1394;-73
2022/01/15 14:19:02;;;;;;;;;;;20.20;44.50;;;;;;5060123;28;1327;-73
2022/01/15 14:21:40;;;;;;;;;;;20.20;44.40;;;;;;5069023;28;1277;-72
2022/01/15 14:24:15;;;;;;;;;;;20.20;44.40;;;;;;5070476;28;1234;-72
2022/01/15 14:26:45;;;;;;;;;;;20.10;44.20;;;;;;5070100;28;1263;-72
2022/01/15 14:29:10;;;;;;;;;;;20.10;44.80;;;;;;5069757;28;1445;-72
2022/01/15 14:31:35;;;;;;;;;;;20.20;44.40;;;;;;5074141;28;1273;-71
2022/01/15 14:34:03;;;;;;;;;;;20.10;44.20;;;;;;5072191;28;1628;-72
2022/01/15 14:36:29;;;;;;;;;;;20.10;44.20;;;;;;5071804;28;1290;-72
2022/01/15 14:38:54;;;;;;;;;;;20.10;44.20;;;;;;5073594;28;1292;-73
2022/01/15 14:41:20;;;;;;;;;;;20.00;44.00;;;;;;5072973;28;1277;-71
2022/01/15 14:43:45;;;;;;;;;;;20.10;44.20;;;;;;5074171;28;1910;-71
2022/01/15 14:46:10;;;;;;;;;;;20.00;44.00;;;;;;5073687;28;1365;-70
2022/01/15 14:48:36;;;;;;;;;;;20.00;44.10;;;;;;5073612;28;1359;-71